Terminal Aerodrome Forecast
Issued by NWS Sioux Falls, SD

Home | Current Version | Previous Version | Text Only | Print | Product List | Glossary Off
Versions: 1 2 3 4 5 6 7 8 9 10 11 12 13 14 15

038
FTUS43 KFSD 201137
TAFHON
TAF
KHON 201137Z 2012/2112 01006KT P6SM BKN120
     FM201500 01010KT P6SM VCSH BKN110
     FM201800 03010KT P6SM SCT200
     FM210300 04006KT P6SM FEW250=

USA.gov is the U.S. government's official web portal to all federal, state and local government web resources and services.